To NAV CANADA Home Page Login to a new session Search on AWWS site Feedback and Comments Disclaimer Vers la page française équivalente Tips FAQ What's new on the site To the Forecasts and Observations / NOTAM section To "File a Flight Plan" website Publications and other links Update of the User's profile FIC Telephone Numbers My Weather Data Folder Route Weather Data Regional Weather Data Local Weather Data To the Forecasts and Observations / NOTAM section
Request Generated 04/17/2014 at 09:33:27 UTC . Weather information available at that time is displayed.

METAR/TAF

RANKIN INLET/NU    

METAR CYRT 170900Z 28009KT 15SM SCT250 M16/M18 A2972 RMK CI4 SLP069=
METAR CYRT 170800Z 29011KT 15SM SCT250 M15/M17 A2972 RMK CI4 SLP068=
METAR CYRT 170700Z 30014KT 15SM BKN250 M15/M17 A2972 RMK CI6 SLP069=

TAF CYRT 170540Z 1706/1718 30015G25KT P6SM SCT100 OVC200
BECMG 1710/1712 34015G25KT
FM171200 34015G25KT P6SM SCT020 BKN100 TEMPO 1712/1718 5SM BLSN
BKN020
RMK NXT FCST BY 171200Z=
Your time UTC time
Weather data provided by Environment Canada and NAV CANADA